Time;durP1;ratioP1;P1;durP2;ratioP2;P2;SDS_P1;SDS_P2;PMS_P1;PMS_P2;Temp;Humidity;BMP_temperature;BMP_pressure;BME280_temperature;BME280_humidity;BME280_pressure;Samples;Min_cycle;Max_cycle;Signal;HPM_P1;HPM_P2
2024/01/03 00:00:13;;;;;;;2.72;0.68;;;10.80;99.90;;;;;;5016775;28;20029;-67
2024/01/03 00:02:38;;;;;;;2.17;0.47;;;10.80;99.90;;;;;;5017223;28;20032;-67
2024/01/03 00:05:08;;;;;;;1.85;0.40;;;10.80;99.90;;;;;;5016673;28;20113;-68
2024/01/03 00:07:33;;;;;;;6.18;1.17;;;10.70;99.90;;;;;;5017110;28;20030;-67
2024/01/03 00:10:00;;;;;;;18.73;4.70;;;10.70;99.90;;;;;;5017249;28;20044;-67
2024/01/03 00:12:25;;;;;;;23.25;5.63;;;10.70;99.90;;;;;;5017234;28;20018;-68
2024/01/03 00:14:51;;;;;;;35.08;12.18;;;10.70;99.90;;;;;;5016485;28;20022;-68
2024/01/03 00:17:19;;;;;;;1.40;0.63;;;10.70;99.90;;;;;;5017260;28;20034;-69
2024/01/03 00:19:49;;;;;;;1.77;0.20;;;10.60;99.90;;;;;;5017353;28;20049;-68
2024/01/03 00:22:15;;;;;;;0.52;0.20;;;10.70;99.90;;;;;;5017449;28;20022;-69
2024/01/03 00:24:48;;;;;;;2.65;0.60;;;10.70;99.90;;;;;;5017334;28;20052;-62
2024/01/03 00:27:15;;;;;;;1.70;0.20;;;10.70;99.90;;;;;;5016889;28;20025;-62
2024/01/03 00:30:01;;;;;;;1.92;0.40;;;10.70;99.90;;;;;;5017253;28;20026;-63
2024/01/03 00:32:27;;;;;;;1.83;0.25;;;10.70;99.90;;;;;;5016113;28;20033;-62
2024/01/03 00:34:54;;;;;;;0.65;0.30;;;10.70;99.90;;;;;;5017130;28;20018;-62
2024/01/03 00:37:32;;;;;;;1.40;0.40;;;10.70;99.90;;;;;;5017234;28;20049;-62
2024/01/03 00:39:59;;;;;;;4.38;0.70;;;10.70;99.90;;;;;;5016837;28;20061;-62
2024/01/03 00:42:38;;;;;;;2.42;0.45;;;10.70;99.90;;;;;;5016018;28;20052;-62
2024/01/03 00:45:04;;;;;;;2.17;0.30;;;10.80;99.90;;;;;;5015968;28;20030;-62
2024/01/03 00:47:30;;;;;;;2.15;0.30;;;10.80;99.90;;;;;;5016824;28;20040;-67
2024/01/03 00:49:55;;;;;;;3.45;0.40;;;10.80;99.90;;;;;;5016863;28;20094;-68
2024/01/03 00:52:21;;;;;;;0.47;0.30;;;10.70;99.90;;;;;;5016164;28;20018;-67
2024/01/03 00:54:47;;;;;;;0.88;0.40;;;10.60;99.90;;;;;;5015657;28;20034;-67
2024/01/03 00:57:14;;;;;;;1.38;0.40;;;10.50;99.90;;;;;;5017095;28;20056;-67
2024/01/03 00:59:39;;;;;;;0.90;0.73;;;10.30;99.90;;;;;;5015801;28;20079;-67
2024/01/03 01:02:05;;;;;;;1.80;0.55;;;10.20;99.90;;;;;;5016253;28;20026;-67
2024/01/03 01:04:32;;;;;;;0.80;0.30;;;10.20;99.90;;;;;;5019315;28;20026;-68
2024/01/03 01:06:58;;;;;;;2.10;0.47;;;10.20;99.90;;;;;;5020220;28;20026;-67
2024/01/03 01:09:23;;;;;;;0.50;0.20;;;10.10;99.90;;;;;;5020382;28;20101;-67
2024/01/03 01:11:49;;;;;;;0.70;0.20;;;10.10;99.90;;;;;;5019338;28;20121;-68
2024/01/03 01:14:14;;;;;;;0.63;0.30;;;10.10;99.90;;;;;;5020191;28;20034;-67
2024/01/03 01:16:40;;;;;;;1.83;0.60;;;10.10;99.90;;;;;;5019528;28;20029;-67
2024/01/03 01:19:06;;;;;;;0.55;0.10;;;10.00;99.90;;;;;;5019522;28;20018;-63
2024/01/03 01:21:32;;;;;;;0.40;0.20;;;10.00;99.90;;;;;;5020365;28;20014;-62
2024/01/03 01:23:57;;;;;;;4.05;0.30;;;10.00;99.90;;;;;;5019847;28;20045;-62
2024/01/03 01:26:23;;;;;;;2.90;0.17;;;10.00;99.90;;;;;;5020209;28;20022;-63
2024/01/03 01:28:48;;;;;;;0.13;0.13;;;10.00;99.90;;;;;;5019069;28;20068;-67
2024/01/03 01:31:14;;;;;;;0.68;0.20;;;9.90;99.90;;;;;;5019816;28;20021;-68
2024/01/03 01:33:39;;;;;;;4.28;0.20;;;9.90;99.90;;;;;;5019997;28;20022;-69
2024/01/03 01:36:05;;;;;;;1.83;0.63;;;9.90;99.90;;;;;;5018841;28;20042;-69
2024/01/03 01:38:31;;;;;;;0.47;0.13;;;9.90;99.90;;;;;;5019741;28;20033;-69
2024/01/03 01:40:56;;;;;;;0.75;0.10;;;9.90;99.90;;;;;;5018898;28;20026;-69
2024/01/03 01:43:22;;;;;;;0.38;0.10;;;9.90;99.90;;;;;;5019653;28;20053;-62
2024/01/03 01:45:48;;;;;;;0.57;0.22;;;9.90;99.90;;;;;;5018571;28;20033;-62
2024/01/03 01:48:15;;;;;;;0.05;0.05;;;9.90;99.90;;;;;;5019765;28;20041;-62
2024/01/03 01:50:41;;;;;;;1.25;0.10;;;9.90;99.90;;;;;;5019949;28;20032;-62
2024/01/03 01:53:07;;;;;;;3.10;0.10;;;9.90;99.90;;;;;;5018629;28;20058;-62
2024/01/03 01:55:36;;;;;;;3.80;0.30;;;9.80;99.90;;;;;;5019256;28;20041;-63
2024/01/03 01:58:03;;;;;;;0.15;0.10;;;9.80;99.90;;;;;;5019670;28;20018;-62
2024/01/03 02:00:28;;;;;;;0.43;0.03;;;9.80;99.90;;;;;;5019322;28;20049;-63
2024/01/03 02:02:54;;;;;;;0.20;0.10;;;9.80;99.90;;;;;;5018686;28;20018;-62
2024/01/03 02:05:20;;;;;;;0.90;0.10;;;9.80;99.90;;;;;;5019116;28;20030;-63
2024/01/03 02:07:45;;;;;;;0.77;0.10;;;9.80;99.90;;;;;;5018901;28;20052;-63
2024/01/03 02:10:11;;;;;;;4.07;0.40;;;9.80;99.90;;;;;;5019084;28;20029;-63
2024/01/03 02:12:37;;;;;;;1.35;0.30;;;9.70;99.90;;;;;;5019069;28;20029;-62
2024/01/03 02:15:04;;;;;;;3.38;0.32;;;9.70;99.90;;;;;;5018077;28;20048;-63
2024/01/03 02:17:31;;;;;;;0.65;0.20;;;9.70;99.90;;;;;;5018155;28;20119;-62
2024/01/03 02:20:00;;;;;;;2.42;0.13;;;9.70;99.90;;;;;;5019533;28;20045;-62
2024/01/03 02:22:28;;;;;;;1.02;0.10;;;9.80;99.90;;;;;;5019349;28;20105;-63
2024/01/03 02:24:53;;;;;;;1.67;0.32;;;9.80;99.90;;;;;;5018860;28;20029;-62
2024/01/03 02:27:19;;;;;;;0.90;0.40;;;9.80;99.90;;;;;;5018692;28;20022;-62
2024/01/03 02:29:44;;;;;;;1.67;0.40;;;9.80;99.90;;;;;;5017893;28;20109;-62
2024/01/03 02:32:10;;;;;;;0.80;0.55;;;9.70;99.90;;;;;;5018891;28;20025;-62
2024/01/03 02:34:35;;;;;;;3.13;0.50;;;9.80;99.90;;;;;;5018558;28;20025;-63
2024/01/03 02:37:02;;;;;;;1.30;0.40;;;9.80;99.90;;;;;;5019233;28;20087;-63
2024/01/03 02:39:27;;;;;;;1.35;0.38;;;9.90;99.90;;;;;;5018273;28;20073;-63
2024/01/03 02:41:53;;;;;;;0.57;0.10;;;9.90;99.90;;;;;;5017915;28;20025;-63
2024/01/03 02:44:21;;;;;;;3.65;0.40;;;9.80;99.90;;;;;;5018742;28;20022;-62
2024/01/03 02:46:47;;;;;;;1.95;0.32;;;9.80;99.90;;;;;;5018432;28;20018;-62
2024/01/03 02:49:12;;;;;;;1.52;0.40;;;9.80;99.90;;;;;;5017771;28;20028;-62
2024/01/03 02:51:38;;;;;;;3.05;1.33;;;9.80;99.90;;;;;;5018883;28;20033;-62
2024/01/03 02:54:03;;;;;;;1.80;0.50;;;9.80;99.90;;;;;;5018260;28;20025;-64
2024/01/03 02:56:29;;;;;;;0.68;0.30;;;9.80;99.90;;;;;;5041180;22;20054;-68
2024/01/03 02:58:54;;;;;;;0.85;0.35;;;9.80;99.90;;;;;;5017687;28;20045;-68
2024/01/03 03:01:20;;;;;;;5.63;0.43;;;9.80;99.90;;;;;;5017374;28;20030;-68
2024/01/03 03:03:45;;;;;;;6.25;1.42;;;9.80;99.90;;;;;;5018489;28;20026;-68
2024/01/03 03:06:11;;;;;;;2.75;0.70;;;9.80;99.90;;;;;;5018355;28;20052;-67
2024/01/03 03:08:36;;;;;;;2.72;0.50;;;9.80;99.90;;;;;;5017131;28;20026;-67
2024/01/03 03:11:03;;;;;;;1.30;0.40;;;9.80;99.90;;;;;;5017098;28;20041;-68
2024/01/03 03:13:28;;;;;;;0.93;0.38;;;9.90;99.90;;;;;;5018223;28;20049;-68
2024/01/03 03:15:54;;;;;;;1.05;0.38;;;9.90;99.90;;;;;;5017076;28;20025;-68
2024/01/03 03:18:19;;;;;;;2.90;0.82;;;10.00;99.90;;;;;;5017373;28;20046;-67
2024/01/03 03:20:45;;;;;;;4.18;0.35;;;10.00;99.90;;;;;;5016966;28;20104;-67
2024/01/03 03:23:10;;;;;;;0.50;0.20;;;10.00;99.90;;;;;;5016908;28;20097;-67
2024/01/03 03:25:36;;;;;;;3.60;0.68;;;10.10;99.90;;;;;;5016230;28;20030;-67
2024/01/03 03:28:07;;;;;;;2.97;0.22;;;10.10;99.90;;;;;;5016901;28;20026;-67
2024/01/03 03:30:34;;;;;;;4.88;0.80;;;10.10;99.90;;;;;;5017959;28;20018;-67
2024/01/03 03:33:00;;;;;;;3.95;0.68;;;10.10;99.90;;;;;;5017314;28;20029;-67
2024/01/03 03:35:25;;;;;;;5.35;0.47;;;10.10;99.90;;;;;;5017845;28;20033;-67
2024/01/03 03:37:51;;;;;;;3.47;0.63;;;10.20;99.90;;;;;;5017576;28;20091;-67
2024/01/03 03:40:16;;;;;;;2.10;0.77;;;10.20;99.90;;;;;;5017530;28;20026;-68
2024/01/03 03:42:46;;;;;;;4.55;1.40;;;10.20;99.90;;;;;;5018099;28;20056;-67
2024/01/03 03:45:13;;;;;;;2.30;0.52;;;10.20;99.90;;;;;;5016876;28;20133;-68
2024/01/03 03:47:38;;;;;;;5.00;1.23;;;10.20;99.90;;;;;;5016853;28;20089;-67
2024/01/03 03:50:04;;;;;;;6.15;2.13;;;10.30;99.90;;;;;;5017432;28;20033;-68
2024/01/03 03:52:30;;;;;;;4.07;1.02;;;10.20;99.90;;;;;;5017316;28;20029;-68
2024/01/03 03:54:55;;;;;;;3.83;0.57;;;10.20;99.90;;;;;;5016594;28;20030;-67
2024/01/03 03:57:21;;;;;;;5.30;0.70;;;10.20;99.90;;;;;;5017329;28;20053;-67
2024/01/03 03:59:46;;;;;;;11.82;1.75;;;10.10;99.90;;;;;;5016826;28;20026;-66
2024/01/03 04:02:12;;;;;;;6.35;0.80;;;10.10;99.90;;;;;;5017406;28;20030;-66
2024/01/03 04:04:38;;;;;;;5.22;0.70;;;10.20;99.90;;;;;;5017092;28;20022;-66
2024/01/03 04:07:04;;;;;;;7.68;1.00;;;10.20;99.90;;;;;;5016332;28;20033;-67
2024/01/03 04:09:29;;;;;;;7.13;1.48;;;10.20;99.90;;;;;;5016310;28;20033;-67
2024/01/03 04:11:55;;;;;;;8.68;1.13;;;10.20;99.90;;;;;;5016322;28;20026;-67
2024/01/03 04:14:21;;;;;;;6.95;1.73;;;10.20;99.90;;;;;;5016520;28;20033;-67
2024/01/03 04:16:46;;;;;;;7.45;1.08;;;10.20;99.90;;;;;;5016966;28;20045;-66
2024/01/03 04:19:12;;;;;;;5.47;0.70;;;10.20;99.90;;;;;;5017277;28;20101;-67
2024/01/03 04:21:37;;;;;;;4.72;0.88;;;10.20;99.90;;;;;;5017381;28;20018;-66
2024/01/03 04:24:03;;;;;;;4.70;0.70;;;10.10;99.90;;;;;;5017170;28;20049;-67
2024/01/03 04:26:29;;;;;;;8.48;1.20;;;10.10;99.90;;;;;;5017033;28;20054;-66
2024/01/03 04:28:54;;;;;;;5.57;1.30;;;10.10;99.90;;;;;;5017299;28;20025;-67
2024/01/03 04:31:20;;;;;;;2.22;0.63;;;10.10;99.90;;;;;;5017340;28;20121;-66
2024/01/03 04:33:45;;;;;;;8.68;0.95;;;10.10;99.90;;;;;;5016116;28;20022;-66
2024/01/03 04:36:11;;;;;;;4.63;1.10;;;10.10;99.90;;;;;;5016232;28;20045;-67
2024/01/03 04:38:37;;;;;;;4.80;0.77;;;10.10;99.90;;;;;;5019975;28;20058;-66
2024/01/03 04:41:02;;;;;;;2.30;0.40;;;10.10;99.90;;;;;;5020792;28;20026;-67
2024/01/03 04:43:29;;;;;;;8.27;1.30;;;10.10;99.90;;;;;;5020870;28;20056;-66
2024/01/03 04:45:54;;;;;;;4.47;0.98;;;10.20;99.90;;;;;;5019888;28;20034;-67
2024/01/03 04:48:20;;;;;;;6.28;0.80;;;10.20;99.90;;;;;;5020066;28;20022;-67
2024/01/03 04:50:46;;;;;;;2.35;0.65;;;10.20;99.90;;;;;;5021038;28;20022;-67
2024/01/03 04:53:11;;;;;;;7.20;0.88;;;10.20;99.90;;;;;;5020637;28;20014;-66
2024/01/03 04:55:37;;;;;;;3.95;0.77;;;10.20;99.90;;;;;;5020434;28;20034;-66
2024/01/03 04:58:03;;;;;;;4.55;0.80;;;10.20;99.90;;;;;;5019640;28;20032;-66
2024/01/03 05:00:29;;;;;;;5.30;1.23;;;10.20;99.90;;;;;;5019705;28;20036;-66
2024/01/03 05:02:56;;;;;;;2.92;1.23;;;10.30;99.90;;;;;;5020527;28;20021;-66
2024/01/03 05:05:22;;;;;;;5.03;0.90;;;10.30;99.90;;;;;;5019648;28;20021;-66
2024/01/03 05:07:47;;;;;;;4.82;0.60;;;10.30;99.90;;;;;;5019698;28;20056;-66
2024/01/03 05:10:13;;;;;;;5.43;0.90;;;10.20;99.90;;;;;;5019793;28;20064;-66
2024/01/03 05:12:38;;;;;;;4.28;0.75;;;10.10;99.90;;;;;;5019355;28;20022;-66
2024/01/03 05:15:05;;;;;;;10.52;1.17;;;9.90;99.90;;;;;;5020708;28;20048;-67
2024/01/03 05:17:31;;;;;;;9.52;1.13;;;9.80;99.90;;;;;;5020138;28;20052;-66
2024/01/03 05:19:57;;;;;;;7.88;0.60;;;9.70;99.90;;;;;;5019236;28;20084;-66
2024/01/03 05:22:23;;;;;;;5.43;0.70;;;9.70;99.90;;;;;;5019261;28;20029;-67
2024/01/03 05:24:48;;;;;;;2.28;0.70;;;9.70;99.90;;;;;;5019077;28;20112;-68
2024/01/03 05:27:14;;;;;;;14.30;1.50;;;9.60;99.90;;;;;;5019006;28;20034;-68
2024/01/03 05:29:39;;;;;;;7.10;1.20;;;9.60;99.90;;;;;;5019141;28;20030;-68
2024/01/03 05:32:05;;;;;;;8.68;0.82;;;9.60;99.90;;;;;;5019313;28;20018;-68
2024/01/03 05:34:31;;;;;;;7.68;0.90;;;9.70;99.90;;;;;;5019495;28;20033;-68
2024/01/03 05:36:56;;;;;;;11.40;0.80;;;9.70;99.90;;;;;;5018974;28;20026;-67
2024/01/03 05:39:22;;;;;;;3.40;1.27;;;9.80;99.90;;;;;;5018811;28;20037;-68
2024/01/03 05:41:48;;;;;;;3.35;1.00;;;9.80;99.90;;;;;;5018887;28;20022;-68
2024/01/03 05:44:13;;;;;;;6.90;1.27;;;9.90;99.90;;;;;;5018714;28;20017;-68
2024/01/03 05:46:39;;;;;;;6.20;0.98;;;9.90;99.90;;;;;;5018823;28;20022;-68
2024/01/03 05:49:05;;;;;;;10.98;1.35;;;10.00;99.90;;;;;;5019196;28;20026;-68
2024/01/03 05:51:31;;;;;;;5.53;0.90;;;10.00;99.90;;;;;;5018530;28;20026;-68
2024/01/03 05:53:56;;;;;;;6.82;1.77;;;10.00;99.90;;;;;;5019001;28;20049;-68
2024/01/03 05:56:22;;;;;;;4.93;0.75;;;9.90;99.90;;;;;;5018364;28;20030;-68
2024/01/03 05:58:48;;;;;;;6.07;1.20;;;9.90;99.90;;;;;;5018533;28;20026;-67
2024/01/03 06:01:14;;;;;;;6.75;1.02;;;9.90;99.90;;;;;;5018452;28;20026;-68
2024/01/03 06:03:39;;;;;;;3.72;1.52;;;9.90;99.90;;;;;;5019244;28;20026;-68
2024/01/03 06:06:05;;;;;;;8.88;2.22;;;9.90;99.90;;;;;;5019277;28;20117;-68
2024/01/03 06:08:30;;;;;;;5.00;1.08;;;9.90;99.90;;;;;;5019236;28;20032;-68
2024/01/03 06:10:56;;;;;;;6.25;0.80;;;9.90;99.90;;;;;;5019085;28;20057;-68
2024/01/03 06:13:22;;;;;;;9.80;0.77;;;9.90;99.90;;;;;;5018217;28;20124;-67
2024/01/03 06:15:48;;;;;;;8.07;0.88;;;9.90;99.90;;;;;;5018093;28;20021;-67
2024/01/03 06:18:13;;;;;;;5.65;0.73;;;9.90;99.90;;;;;;5018641;28;20029;-68
2024/01/03 06:20:40;;;;;;;5.95;0.90;;;9.90;99.90;;;;;;5018989;28;20021;-68
2024/01/03 06:23:05;;;;;;;10.35;1.40;;;9.90;99.90;;;;;;5017928;28;20040;-68
2024/01/03 06:25:31;;;;;;;8.35;1.02;;;9.90;99.90;;;;;;5018038;28;20030;-68
2024/01/03 06:27:57;;;;;;;2.65;1.20;;;10.00;99.90;;;;;;5019353;28;20037;-68
2024/01/03 06:30:23;;;;;;;8.07;1.80;;;10.00;99.90;;;;;;5017890;28;20018;-68
2024/01/03 06:32:48;;;;;;;4.93;1.10;;;10.00;99.90;;;;;;5017890;28;20022;-67
2024/01/03 06:35:14;;;;;;;6.30;1.38;;;10.00;99.90;;;;;;5018078;28;20076;-67
2024/01/03 06:37:43;;;;;;;8.13;0.52;;;10.10;99.90;;;;;;5017805;28;20080;-68
2024/01/03 06:40:09;;;;;;;5.32;0.95;;;10.10;99.90;;;;;;5018165;28;20021;-67
2024/01/03 06:42:34;;;;;;;6.32;1.48;;;10.10;99.90;;;;;;5018781;28;20034;-67
2024/01/03 06:45:00;;;;;;;5.63;0.80;;;10.10;99.90;;;;;;5018006;28;20072;-67
2024/01/03 06:47:25;;;;;;;3.90;1.35;;;10.10;99.90;;;;;;5017679;28;20045;-67
2024/01/03 06:49:51;;;;;;;2.13;0.60;;;10.10;99.90;;;;;;5018664;28;20029;-68
2024/01/03 06:52:16;;;;;;;5.03;1.20;;;10.10;99.90;;;;;;5018536;28;20026;-67
2024/01/03 06:54:42;;;;;;;5.55;0.90;;;10.10;99.90;;;;;;5017338;28;20022;-67
2024/01/03 06:57:07;;;;;;;7.88;0.73;;;10.10;99.90;;;;;;5017391;28;20030;-67
2024/01/03 06:59:35;;;;;;;6.55;1.08;;;10.10;99.90;;;;;;5018049;28;20026;-68
2024/01/03 07:02:01;;;;;;;9.07;1.48;;;10.10;99.90;;;;;;5017498;28;20064;-67
2024/01/03 07:04:27;;;;;;;5.00;1.35;;;10.10;99.90;;;;;;5018104;28;20034;-67
2024/01/03 07:06:52;;;;;;;5.00;0.70;;;10.10;99.90;;;;;;5017262;28;20176;-67
2024/01/03 07:09:18;;;;;;;1.52;0.70;;;10.10;99.90;;;;;;5017449;28;20018;-68
2024/01/03 07:11:43;;;;;;;6.20;1.02;;;10.20;99.90;;;;;;5017301;28;20022;-67
2024/01/03 07:14:12;;;;;;;7.85;0.75;;;10.20;99.90;;;;;;5017159;28;20033;-68
2024/01/03 07:16:38;;;;;;;6.88;1.08;;;10.20;99.90;;;;;;5017783;28;20026;-68
2024/01/03 07:19:03;;;;;;;10.57;1.70;;;10.20;99.90;;;;;;5017235;28;20034;-68
2024/01/03 07:21:29;;;;;;;6.95;1.98;;;10.20;99.90;;;;;;5017628;28;20026;-67
2024/01/03 07:23:54;;;;;;;3.78;1.02;;;10.10;99.90;;;;;;5017235;28;20026;-67
2024/01/03 07:26:20;;;;;;;3.92;1.05;;;10.10;99.90;;;;;;5017821;28;20025;-68
2024/01/03 07:28:45;;;;;;;2.63;0.60;;;10.10;99.90;;;;;;5016868;28;20041;-67
2024/01/03 07:31:11;;;;;;;7.85;1.05;;;10.10;99.90;;;;;;5016798;28;20022;-67
2024/01/03 07:33:39;;;;;;;8.65;0.80;;;10.10;99.90;;;;;;5016992;28;20030;-68
2024/01/03 07:36:05;;;;;;;4.90;1.40;;;10.10;99.90;;;;;;5017610;28;20104;-67
2024/01/03 07:38:31;;;;;;;7.03;1.10;;;10.20;99.90;;;;;;5016398;28;20033;-68
2024/01/03 07:40:56;;;;;;;3.35;0.73;;;10.20;99.90;;;;;;5017353;28;20034;-68
2024/01/03 07:43:22;;;;;;;6.70;1.00;;;10.20;99.90;;;;;;5016534;28;20113;-68
2024/01/03 07:45:47;;;;;;;5.70;0.93;;;10.20;99.90;;;;;;5017783;28;20026;-68
2024/01/03 07:48:20;;;;;;;8.45;0.95;;;10.30;99.90;;;;;;5017543;28;20033;-67
2024/01/03 07:50:45;;;;;;;15.80;2.53;;;10.20;99.90;;;;;;5017646;28;20120;-67
2024/01/03 07:53:11;;;;;;;7.32;1.00;;;10.00;99.90;;;;;;5016518;28;20061;-67
2024/01/03 07:55:36;;;;;;;9.57;1.08;;;9.90;99.90;;;;;;5017227;28;20037;-68
2024/01/03 07:58:02;;;;;;;7.47;1.30;;;9.90;99.90;;;;;;5017907;28;20034;-68
2024/01/03 08:00:31;;;;;;;7.40;1.63;;;9.90;99.90;;;;;;5017495;28;20022;-68
2024/01/03 08:02:59;;;;;;;4.65;1.88;;;9.90;99.90;;;;;;5017280;28;20037;-68
2024/01/03 08:05:25;;;;;;;9.43;0.88;;;9.90;99.90;;;;;;5016721;28;20125;-67
2024/01/03 08:07:51;;;;;;;7.25;1.33;;;9.90;99.90;;;;;;5016245;28;20116;-67
2024/01/03 08:10:16;;;;;;;7.32;2.00;;;10.00;99.90;;;;;;5016634;28;20026;-68
2024/01/03 08:12:42;;;;;;;7.22;1.00;;;10.00;99.90;;;;;;5021837;28;20081;-68
2024/01/03 08:15:08;;;;;;;9.30;1.55;;;10.00;99.90;;;;;;5023052;28;20084;-68
2024/01/03 08:17:34;;;;;;;2.88;1.13;;;10.10;99.90;;;;;;5022881;28;20022;-68
2024/01/03 08:20:00;;;;;;;7.72;0.93;;;10.10;99.90;;;;;;5022837;28;20030;-68
2024/01/03 08:22:25;;;;;;;5.07;1.10;;;10.10;99.90;;;;;;5022927;28;20028;-68
2024/01/03 08:24:51;;;;;;;5.47;1.00;;;10.10;99.90;;;;;;5023578;28;20026;-68
2024/01/03 08:27:19;;;;;;;5.88;1.25;;;10.10;99.90;;;;;;5022646;28;20057;-67
2024/01/03 08:29:45;;;;;;;6.40;1.30;;;10.00;99.90;;;;;;5022727;28;20032;-67
2024/01/03 08:32:11;;;;;;;3.28;0.50;;;10.00;99.90;;;;;;5023620;28;20018;-67
2024/01/03 08:34:37;;;;;;;4.00;0.82;;;10.00;99.90;;;;;;5022764;28;20034;-68
2024/01/03 08:37:02;;;;;;;4.55;0.63;;;10.00;99.90;;;;;;5022959;28;20017;-67
2024/01/03 08:39:28;;;;;;;5.65;0.90;;;10.00;99.90;;;;;;5022704;28;20026;-68
2024/01/03 08:41:54;;;;;;;2.40;0.63;;;9.90;99.90;;;;;;5022743;28;20048;-68
2024/01/03 08:44:23;;;;;;;3.75;0.63;;;9.90;99.90;;;;;;5023557;28;20025;-68
2024/01/03 08:46:48;;;;;;;7.65;1.15;;;9.80;99.90;;;;;;5022768;28;20052;-68
2024/01/03 08:49:14;;;;;;;3.92;1.00;;;9.80;99.90;;;;;;5024018;28;20022;-68
2024/01/03 08:51:45;;;;;;;5.65;0.82;;;9.80;99.90;;;;;;5022337;28;20018;-68
2024/01/03 08:54:11;;;;;;;6.65;0.60;;;9.90;99.90;;;;;;5022282;28;20049;-66
2024/01/03 08:56:39;;;;;;;2.17;0.40;;;9.80;99.90;;;;;;5023221;28;20045;-69
2024/01/03 08:59:05;;;;;;;2.97;0.60;;;9.70;99.90;;;;;;5023472;28;20022;-68
2024/01/03 09:01:34;;;;;;;4.03;0.82;;;9.60;99.90;;;;;;5023693;28;20034;-67
2024/01/03 09:04:01;;;;;;;5.60;0.88;;;9.50;99.90;;;;;;5023284;28;20156;-67
2024/01/03 09:06:26;;;;;;;5.45;0.77;;;9.50;99.90;;;;;;5023086;28;20033;-66
2024/01/03 09:08:54;;;;;;;2.30;0.65;;;9.40;99.90;;;;;;5023218;28;20056;-66
2024/01/03 09:11:25;;;;;;;5.60;0.88;;;9.40;99.90;;;;;;5022208;28;20026;-66
2024/01/03 09:13:51;;;;;;;7.57;0.90;;;9.40;99.90;;;;;;5023167;28;20022;-68
2024/01/03 09:16:19;;;;;;;5.53;0.60;;;9.40;99.90;;;;;;5022856;28;20256;-68
2024/01/03 09:18:46;;;;;;;10.73;1.80;;;9.40;99.90;;;;;;5023063;28;20026;-67
2024/01/03 09:21:11;;;;;;;6.50;1.42;;;9.40;99.90;;;;;;5022309;28;20033;-67
2024/01/03 09:23:37;;;;;;;6.18;0.75;;;9.30;99.90;;;;;;5019639;28;20029;-68
2024/01/03 09:26:06;;;;;;;4.25;0.98;;;9.30;99.90;;;;;;5020292;28;20105;-68
2024/01/03 09:28:34;;;;;;;2.88;0.65;;;9.40;99.90;;;;;;5019972;28;20109;-68
2024/01/03 09:31:02;;;;;;;11.75;1.00;;;9.40;99.90;;;;;;5019887;28;20018;-68
2024/01/03 09:33:27;;;;;;;2.63;0.73;;;9.40;99.90;;;;;;5019003;28;20026;-68
2024/01/03 09:35:53;;;;;;;3.53;0.82;;;9.40;99.90;;;;;;5019202;28;20041;-69
2024/01/03 09:38:18;;;;;;;9.23;0.68;;;9.30;99.90;;;;;;5019685;28;20026;-67
2024/01/03 09:40:44;;;;;;;1.63;0.80;;;9.30;99.90;;;;;;5019909;28;20026;-67
2024/01/03 09:43:11;;;;;;;2.67;0.60;;;9.20;99.90;;;;;;5019581;28;20026;-67
2024/01/03 09:45:37;;;;;;;4.53;0.40;;;9.10;99.90;;;;;;5019325;28;20057;-68
2024/01/03 09:48:04;;;;;;;2.63;0.20;;;8.90;99.90;;;;;;5019002;28;20026;-67
2024/01/03 09:50:31;;;;;;;3.55;0.43;;;8.90;99.90;;;;;;5019538;28;20026;-67
2024/01/03 09:52:58;;;;;;;1.10;0.40;;;8.80;99.90;;;;;;5019578;28;20049;-67
2024/01/03 09:55:23;;;;;;;2.75;0.32;;;8.80;99.90;;;;;;5018405;28;20061;-67
2024/01/03 09:57:54;;;;;;;2.80;0.40;;;8.80;99.90;;;;;;5019458;28;20038;-67
2024/01/03 10:00:19;;;;;;;1.15;0.40;;;8.70;99.90;;;;;;5019633;28;20050;-66
2024/01/03 10:02:47;;;;;;;1.08;0.40;;;8.80;99.90;;;;;;5018943;28;20033;-67
2024/01/03 10:05:20;;;;;;;0.82;0.20;;;8.80;99.90;;;;;;5019405;28;20021;-67
2024/01/03 10:07:46;;;;;;;0.65;0.30;;;8.90;99.90;;;;;;5019087;28;20045;-67
2024/01/03 10:10:12;;;;;;;0.75;0.30;;;9.10;99.90;;;;;;5019234;28;20018;-67
2024/01/03 10:12:37;;;;;;;2.60;0.50;;;9.20;99.90;;;;;;5018624;28;20057;-66
2024/01/03 10:15:14;;;;;;;4.10;0.40;;;9.40;99.90;;;;;;5018223;28;20033;-67
2024/01/03 10:17:42;;;;;;;1.10;0.47;;;9.40;99.90;;;;;;5019406;28;20097;-68
2024/01/03 10:20:28;;;;;;;1.20;0.30;;;9.40;99.90;;;;;;5018389;28;20040;-67
2024/01/03 10:23:09;;;;;;;2.10;0.30;;;9.50;99.90;;;;;;5018687;28;20030;-68
2024/01/03 10:25:35;;;;;;;3.92;0.60;;;9.50;99.90;;;;;;5019151;28;20025;-68
2024/01/03 10:28:02;;;;;;;2.35;0.40;;;9.70;99.90;;;;;;5018569;28;20022;-68
2024/01/03 10:30:28;;;;;;;6.25;0.80;;;9.80;99.90;;;;;;5017855;28;20026;-67
2024/01/03 10:33:13;;;;;;;1.45;0.40;;;9.80;99.90;;;;;;5018619;28;20034;-67
2024/01/03 10:35:45;;;;;;;2.50;0.20;;;9.80;99.90;;;;;;5018328;28;20057;-67
2024/01/03 10:38:13;;;;;;;9.00;0.93;;;9.80;99.90;;;;;;5017806;28;20049;-66
2024/01/03 10:40:41;;;;;;;4.15;1.05;;;9.90;99.90;;;;;;5018442;28;20053;-67
2024/01/03 10:43:10;;;;;;;2.92;1.42;;;9.90;99.90;;;;;;5017438;28;20026;-67
2024/01/03 10:45:36;;;;;;;3.15;0.47;;;10.10;99.90;;;;;;5018437;28;20021;-67
2024/01/03 10:48:02;;;;;;;5.22;0.90;;;10.20;99.90;;;;;;5018406;28;20057;-67
2024/01/03 10:50:28;;;;;;;3.42;0.60;;;10.40;99.90;;;;;;5017815;28;20026;-67
2024/01/03 10:52:58;;;;;;;3.53;0.73;;;10.50;99.90;;;;;;5017407;28;20025;-67
2024/01/03 10:55:33;;;;;;;9.10;0.98;;;10.60;99.90;;;;;;5018428;28;20032;-66
2024/01/03 10:58:03;;;;;;;6.22;0.85;;;10.70;99.90;;;;;;5017520;28;20033;-66
2024/01/03 11:00:47;;;;;;;1.23;0.50;;;10.80;99.90;;;;;;5018269;28;20101;-66
2024/01/03 11:03:22;;;;;;;3.47;0.50;;;11.00;99.90;;;;;;5017474;28;20049;-67
2024/01/03 11:06:00;;;;;;;1.90;0.38;;;11.20;99.90;;;;;;5017693;28;20025;-66
2024/01/03 11:08:46;;;;;;;3.55;0.75;;;11.30;99.90;;;;;;5018270;28;20026;-68
2024/01/03 11:11:14;;;;;;;4.32;0.52;;;11.30;99.90;;;;;;5017712;28;20025;-67
2024/01/03 11:13:40;;;;;;;4.80;0.60;;;11.40;99.90;;;;;;5017151;28;20014;-66
2024/01/03 11:16:09;;;;;;;5.97;0.70;;;11.40;99.90;;;;;;5018081;28;20072;-66
2024/01/03 11:18:41;;;;;;;2.00;0.68;;;11.40;99.90;;;;;;5017025;28;20057;-67
2024/01/03 11:21:30;;;;;;;;;;;11.40;99.90;;;;;;5018385;28;20037;-67
2024/01/03 11:23:56;;;;;;;5.15;0.70;;;11.40;99.90;;;;;;5018029;28;20012;-66
2024/01/03 11:26:53;;;;;;;8.43;0.70;;;11.20;99.90;;;;;;5017737;28;20030;-67
2024/01/03 11:29:48;;;;;;;8.10;1.20;;;11.10;99.90;;;;;;5017541;28;20030;-67
2024/01/03 11:32:29;;;;;;;4.45;0.88;;;11.10;99.90;;;;;;5016834;28;20134;-66
2024/01/03 11:34:55;;;;;;;5.63;0.97;;;11.20;99.90;;;;;;5017943;28;20081;-66
2024/01/03 11:37:24;;;;;;;2.80;0.40;;;11.20;99.90;;;;;;5017734;28;20030;-66
2024/01/03 11:39:52;;;;;;;6.40;1.02;;;11.30;99.90;;;;;;5017006;28;20030;-67
2024/01/03 11:42:40;;;;;;;4.20;1.20;;;11.30;99.90;;;;;;5016737;28;20034;-66
2024/01/03 11:45:07;;;;;;;2.10;0.70;;;11.20;99.90;;;;;;5016556;28;20075;-66
2024/01/03 11:47:46;;;;;;;7.90;0.73;;;11.40;99.90;;;;;;5016147;28;20026;-67
2024/01/03 11:50:14;;;;;;;2.72;0.73;;;11.60;99.90;;;;;;5017462;28;20014;-68
2024/01/03 11:52:42;;;;;;;4.82;0.82;;;11.80;99.90;;;;;;5017427;28;20029;-67
2024/01/03 11:55:11;;;;;;;2.92;0.50;;;11.90;99.90;;;;;;5017151;28;20034;-67
2024/01/03 11:57:42;;;;;;;2.30;0.73;;;12.10;99.90;;;;;;5016388;28;20041;-67
2024/01/03 12:00:16;;;;;;;3.60;0.60;;;12.10;99.90;;;;;;5017407;28;20034;-67
2024/01/03 12:02:55;;;;;;;1.75;0.40;;;12.20;99.90;;;;;;5016541;28;20271;-67
2024/01/03 12:05:24;;;;;;;3.25;0.47;;;12.30;99.90;;;;;;5016467;28;20108;-67
2024/01/03 12:07:51;;;;;;;1.55;0.65;;;12.30;99.90;;;;;;5000656;28;20021;-67
2024/01/03 12:10:18;;;;;;;2.85;0.40;;;12.20;99.90;;;;;;5017608;28;20029;-68
2024/01/03 12:12:45;;;;;;;2.92;0.50;;;12.10;99.90;;;;;;5016668;28;20112;-68
2024/01/03 12:15:22;;;;;;;0.98;0.38;;;12.20;99.90;;;;;;5016619;28;20049;-67
2024/01/03 12:17:47;;;;;;;4.95;0.82;;;12.30;99.90;;;;;;5016387;28;20037;-68
2024/01/03 12:20:14;;;;;;;6.45;0.68;;;12.20;99.90;;;;;;5016733;28;20117;-67
2024/01/03 12:22:40;;;;;;;4.80;0.90;;;12.20;99.90;;;;;;5017228;28;20030;-67
2024/01/03 12:25:06;;;;;;;3.75;0.70;;;12.30;99.90;;;;;;5017222;28;20104;-67
2024/01/03 12:27:33;;;;;;;4.38;0.68;;;12.50;99.90;;;;;;5016222;28;20026;-67
2024/01/03 12:30:18;;;;;;;4.18;0.75;;;12.60;99.90;;;;;;5017181;28;20045;-67
2024/01/03 12:32:45;;;;;;;4.07;0.90;;;12.50;99.90;;;;;;5016674;28;20046;-67
2024/01/03 12:35:12;;;;;;;3.90;0.80;;;12.40;99.90;;;;;;5016105;28;20037;-67
2024/01/03 12:37:46;;;;;;;6.45;1.13;;;12.20;99.90;;;;;;5017233;28;20026;-68
2024/01/03 12:40:16;;;;;;;8.05;1.23;;;12.20;99.90;;;;;;5017233;28;20026;-67
2024/01/03 12:42:42;;;;;;;1.85;0.77;;;12.30;99.90;;;;;;5016973;28;20029;-67
2024/01/03 12:45:08;;;;;;;7.05;1.27;;;12.40;99.90;;;;;;5016121;28;20122;-66
2024/01/03 12:47:34;;;;;;;5.45;1.52;;;12.50;99.90;;;;;;5017015;28;20113;-66
2024/01/03 12:49:59;;;;;;;4.00;0.93;;;12.50;99.90;;;;;;5016799;28;20087;-66